createdAt,value
2022-11-27T00:21:45.625Z,68.74
2022-11-27T00:24:46.264Z,68.68
2022-11-27T00:27:46.376Z,68.56
2022-11-27T00:34:09.295Z,68.46
2022-11-27T01:42:58.060Z,67.00
2022-11-27T02:41:35.340Z,64.91
2022-11-27T02:51:20.331Z,65.02
2022-11-27T03:07:33.063Z,65.20
2022-11-27T03:16:54.771Z,65.19
2022-11-27T03:29:41.307Z,65.05
2022-11-27T03:49:36.442Z,64.87
2022-11-27T05:19:56.003Z,64.28
2022-11-27T06:02:42.192Z,64.26
2022-11-27T06:51:17.454Z,64.29
2022-11-27T06:53:49.954Z,64.30
2022-11-27T06:56:33.736Z,64.23
2022-11-27T06:59:03.260Z,64.33
2022-11-27T07:01:32.845Z,64.43
2022-11-27T07:04:03.291Z,64.51
2022-11-27T07:06:33.847Z,64.35
2022-11-27T07:09:03.945Z,64.39
2022-11-27T07:11:35.562Z,64.25
2022-11-27T07:14:05.109Z,64.06
2022-11-27T07:16:38.241Z,64.10
2022-11-27T07:19:08.864Z,64.34
2022-11-27T07:21:44.062Z,64.36
2022-11-27T07:24:25.366Z,64.58
2022-11-27T07:26:59.174Z,64.42
2022-11-27T07:29:32.670Z,64.63
2022-11-27T07:32:02.692Z,64.50
2022-11-27T07:34:33.338Z,64.61
2022-11-27T07:37:09.653Z,64.64
2022-11-27T07:40:01.279Z,64.55
2022-11-27T07:42:39.233Z,64.52
2022-11-27T07:45:13.721Z,64.55
2022-11-27T07:47:43.868Z,64.36
2022-11-27T07:50:24.116Z,64.34
2022-11-27T07:53:03.697Z,64.30
2022-11-27T07:55:35.304Z,63.81
2022-11-27T07:58:05.410Z,64.20
2022-11-27T08:00:36.199Z,64.48
2022-11-27T08:03:06.369Z,64.18
2022-11-27T08:05:42.318Z,64.23
2022-11-27T08:08:13.282Z,64.11
2022-11-27T08:10:43.100Z,64.14
2022-11-27T08:13:13.437Z,64.33
2022-11-27T08:15:44.851Z,64.17
2022-11-27T08:18:14.306Z,64.24
2022-11-27T08:20:49.725Z,64.31
2022-11-27T08:23:21.450Z,64.17
2022-11-27T08:25:50.758Z,64.26
2022-11-27T08:28:24.941Z,64.35
2022-11-27T08:33:43.662Z,64.38
2022-11-27T08:36:21.646Z,64.49
2022-11-27T08:38:54.694Z,64.59
2022-11-27T08:41:25.942Z,64.71
2022-11-27T08:43:57.156Z,64.58
2022-11-27T08:46:26.078Z,64.68
2022-11-27T08:48:56.863Z,64.70
2022-11-27T08:51:26.858Z,64.79
2022-11-27T08:53:58.725Z,64.75
2022-11-27T08:56:27.688Z,64.80
2022-11-27T08:59:04.122Z,64.62
2022-11-27T09:01:36.756Z,64.72
2022-11-27T09:04:06.399Z,64.50
2022-11-27T09:06:40.378Z,64.27
2022-11-27T09:09:09.536Z,64.43
2022-11-27T09:11:43.095Z,64.46
2022-11-27T09:14:16.797Z,64.54
2022-11-27T09:16:55.359Z,64.54
2022-11-27T09:19:24.144Z,64.27
2022-11-27T09:21:59.972Z,64.50
2022-11-27T09:24:33.029Z,64.31
2022-11-27T09:27:03.830Z,64.43
2022-11-27T09:29:36.991Z,64.49
2022-11-27T09:32:08.638Z,64.39
2022-11-27T09:34:50.370Z,64.40
2022-11-27T09:37:23.226Z,64.51
2022-11-27T09:39:55.985Z,64.50
2022-11-27T09:42:45.118Z,64.42
2022-11-27T09:45:28.456Z,64.37
2022-11-27T09:48:01.594Z,64.42
2022-11-27T09:50:40.056Z,64.54
2022-11-27T09:53:17.922Z,64.49
2022-11-27T09:55:53.272Z,64.52
2022-11-27T09:58:30.318Z,64.35
2022-11-27T10:01:30.474Z,64.35
2022-11-27T10:04:08.521Z,64.42
2022-11-27T10:10:28.813Z,64.47
2022-11-27T10:13:20.837Z,64.25
2022-11-27T10:16:22.211Z,64.19
2022-11-27T10:18:56.952Z,64.32
2022-11-27T10:22:21.035Z,64.20
2022-11-27T10:25:21.306Z,64.16
2022-11-27T10:28:04.142Z,64.29
2022-11-27T10:30:36.282Z,64.13
2022-11-27T10:33:25.606Z,64.19
2022-11-27T10:35:59.297Z,64.08
2022-11-27T10:38:35.642Z,64.00
2022-11-27T10:44:35.145Z,63.95
2022-11-27T10:47:17.524Z,63.85
2022-11-27T10:49:49.889Z,63.59
2022-11-27T10:52:33.038Z,63.68
2022-11-27T10:55:30.106Z,63.66
2022-11-27T11:01:22.054Z,63.72
2022-11-27T11:04:24.726Z,63.64
2022-11-27T11:07:41.491Z,63.29
2022-11-27T11:10:41.685Z,63.36
2022-11-27T11:13:43.928Z,63.38
2022-11-27T11:16:48.271Z,63.42
2022-11-27T11:19:36.211Z,63.19
2022-11-27T11:22:14.600Z,63.30
2022-11-27T11:25:07.133Z,63.23
2022-11-27T11:28:14.137Z,63.29
2022-11-27T11:31:17.348Z,62.94
2022-11-27T11:33:55.178Z,62.98
2022-11-27T11:42:43.510Z,62.80
2022-11-27T11:45:32.464Z,62.63
2022-11-27T11:48:24.529Z,62.68
2022-11-27T11:51:06.131Z,62.49
2022-11-27T11:53:46.157Z,62.55
2022-11-27T11:56:39.026Z,62.37
2022-11-27T12:02:30.282Z,62.49
2022-11-27T12:05:33.889Z,62.55
2022-11-27T12:11:37.990Z,62.54
2022-11-27T12:14:42.910Z,62.49
2022-11-27T12:21:19.926Z,62.17
2022-11-27T12:24:12.837Z,62.03
2022-11-27T12:26:52.771Z,62.22
2022-11-27T12:29:52.416Z,62.10
2022-11-27T12:32:50.740Z,62.12
2022-11-27T12:35:50.763Z,61.81
2022-11-27T12:38:39.908Z,62.04
2022-11-27T12:44:54.546Z,61.85
2022-11-27T12:47:40.591Z,61.75
2022-11-27T12:50:32.163Z,61.81
2022-11-27T12:53:23.141Z,61.75
2022-11-27T12:56:26.847Z,61.65
2022-11-27T12:59:07.330Z,61.63
2022-11-27T13:02:07.731Z,61.52
2022-11-27T13:07:52.762Z,61.47
2022-11-27T13:10:33.390Z,61.47
2022-11-27T13:13:26.120Z,61.38
2022-11-27T13:16:01.415Z,61.46
2022-11-27T13:18:35.175Z,61.32
2022-11-27T13:21:11.843Z,61.28
2022-11-27T13:23:49.150Z,61.40
2022-11-27T13:26:26.168Z,61.41
2022-11-27T13:29:03.004Z,61.26
2022-11-27T13:31:36.113Z,61.30
2022-11-27T13:37:14.324Z,61.27
2022-11-27T13:39:47.966Z,61.31
2022-11-27T13:42:30.490Z,61.30
2022-11-27T13:45:09.230Z,61.19
2022-11-27T13:47:47.074Z,61.15
2022-11-27T13:50:28.174Z,61.19
2022-11-27T13:53:08.034Z,61.19
2022-11-27T13:55:41.096Z,61.26
2022-11-27T13:58:10.009Z,61.21
2022-11-27T14:00:55.027Z,60.91
2022-11-27T14:03:41.203Z,61.33
2022-11-27T14:06:28.478Z,61.33
2022-11-27T14:09:09.393Z,61.15
2022-11-27T14:11:48.619Z,61.10
2022-11-27T14:15:01.892Z,61.30
2022-11-27T14:17:56.939Z,61.30
2022-11-27T14:20:32.282Z,61.15
2022-11-27T14:23:13.658Z,61.17
2022-11-27T14:25:48.708Z,61.20
2022-11-27T14:28:35.650Z,61.21
2022-11-27T14:31:25.440Z,61.16
2022-11-27T14:34:15.659Z,61.09
2022-11-27T14:36:53.300Z,61.18
2022-11-27T14:39:47.105Z,61.04
2022-11-27T14:42:39.319Z,61.15
2022-11-27T14:45:29.209Z,61.10
2022-11-27T14:48:03.869Z,61.11
2022-11-27T14:50:38.553Z,61.02
2022-11-27T14:53:18.636Z,61.02
2022-11-27T14:55:54.659Z,61.16
2022-11-27T14:58:35.929Z,60.94
2022-11-27T15:01:20.126Z,61.03
2022-11-27T15:04:08.905Z,60.97
2022-11-27T15:07:13.333Z,60.97
2022-11-27T15:10:04.503Z,60.91
2022-11-27T15:12:36.606Z,60.92
2022-11-27T15:15:20.112Z,61.27
2022-11-27T15:17:56.183Z,61.15
2022-11-27T15:20:35.518Z,61.27
2022-11-27T15:23:28.418Z,61.31
2022-11-27T15:26:19.899Z,61.34
2022-11-27T15:28:57.833Z,61.38
2022-11-27T15:31:43.633Z,61.48
2022-11-27T15:34:30.290Z,61.21
2022-11-27T15:37:07.063Z,61.07
2022-11-27T15:39:55.910Z,61.05
2022-11-27T15:42:38.946Z,61.03
2022-11-27T15:45:17.134Z,61.08
2022-11-27T15:47:54.563Z,60.89
2022-11-27T15:50:30.484Z,61.15
2022-11-27T15:53:19.125Z,60.79
2022-11-27T15:56:02.637Z,60.94
2022-11-27T15:58:33.114Z,61.10
2022-11-27T16:01:07.990Z,60.88
2022-11-27T16:04:04.064Z,61.01
2022-11-27T16:06:44.986Z,61.05
2022-11-27T16:09:32.801Z,61.01
2022-11-27T16:12:15.892Z,61.17
2022-11-27T16:15:00.046Z,61.12
2022-11-27T16:17:31.708Z,61.13
2022-11-27T16:20:01.529Z,61.16
2022-11-27T16:25:32.882Z,61.23
2022-11-27T16:28:09.195Z,61.50
2022-11-27T16:30:47.163Z,61.63
2022-11-27T16:33:20.279Z,61.65
2022-11-27T16:35:54.438Z,61.65
2022-11-27T16:38:28.404Z,61.71
2022-11-27T16:41:08.847Z,61.57
2022-11-27T16:44:29.165Z,61.75
2022-11-27T16:49:45.221Z,61.98
2022-11-27T16:52:18.256Z,62.09
2022-11-27T16:54:53.902Z,62.27
2022-11-27T16:57:38.195Z,62.43
2022-11-27T17:00:23.016Z,62.37
2022-11-27T17:05:51.659Z,62.67
2022-11-27T17:08:34.166Z,62.65
2022-11-27T17:11:12.489Z,62.39
2022-11-27T17:13:51.991Z,62.77
2022-11-27T17:16:39.673Z,63.04
2022-11-27T17:19:14.880Z,62.82
2022-11-27T17:21:48.755Z,62.98
2022-11-27T17:24:20.567Z,62.79
2022-11-27T17:26:54.502Z,63.00
2022-11-27T17:29:37.175Z,62.98
2022-11-27T17:32:16.095Z,62.96
2022-11-27T17:34:57.883Z,62.97
2022-11-27T17:37:27.780Z,63.17
2022-11-27T17:40:01.717Z,62.88
2022-11-27T17:42:39.095Z,62.86
2022-11-27T17:45:33.633Z,62.65
2022-11-27T17:48:12.521Z,62.65
2022-11-27T17:50:52.498Z,62.71
2022-11-27T17:53:26.835Z,62.89
2022-11-27T17:55:58.865Z,62.67
2022-11-27T17:58:32.842Z,62.95
2022-11-27T18:01:09.955Z,62.75
2022-11-27T18:03:50.175Z,62.91
2022-11-27T18:06:24.962Z,62.93
2022-11-27T18:08:58.647Z,62.92
2022-11-27T18:11:38.071Z,62.77
2022-11-27T18:14:09.400Z,62.86
2022-11-27T18:16:46.204Z,63.05
2022-11-27T18:19:36.557Z,63.06
2022-11-27T18:22:09.379Z,63.24
2022-11-27T18:24:43.418Z,63.19
2022-11-27T18:27:16.104Z,63.12
2022-11-27T18:29:47.539Z,62.98
2022-11-27T18:32:30.798Z,63.20
2022-11-27T18:35:05.235Z,62.99
2022-11-27T18:37:40.825Z,63.23
2022-11-27T18:40:22.116Z,63.42
2022-11-27T18:42:54.237Z,63.10
2022-11-27T18:45:34.329Z,63.35
2022-11-27T18:48:12.630Z,63.05
2022-11-27T18:54:09.792Z,63.29
2022-11-27T18:56:41.354Z,63.29
2022-11-27T18:59:18.525Z,63.42
2022-11-27T19:01:51.016Z,63.64
2022-11-27T19:04:32.158Z,63.58
2022-11-27T19:07:04.437Z,63.41
2022-11-27T19:09:35.980Z,63.67
2022-11-27T19:12:12.747Z,63.75
2022-11-27T19:14:53.166Z,63.79
2022-11-27T19:17:32.000Z,63.44
2022-11-27T19:20:06.835Z,63.66
2022-11-27T19:22:48.055Z,63.71
2022-11-27T19:26:03.862Z,63.44
2022-11-27T19:33:41.683Z,63.30
2022-11-27T19:36:24.518Z,63.43
2022-11-27T19:44:33.409Z,63.57
2022-11-27T19:55:26.923Z,63.48
2022-11-27T19:58:01.332Z,63.55
2022-11-27T20:01:07.780Z,63.37
2022-11-27T20:03:45.230Z,63.32
2022-11-27T20:09:20.960Z,63.53
2022-11-27T20:11:55.234Z,63.30
2022-11-27T20:14:37.325Z,63.34
2022-11-27T20:17:10.127Z,63.47
2022-11-27T20:19:45.468Z,63.26
2022-11-27T20:22:18.480Z,63.00
2022-11-27T20:25:18.377Z,63.13
2022-11-27T20:27:52.045Z,62.88
2022-11-27T20:30:21.437Z,62.98
2022-11-27T20:33:11.823Z,62.84
2022-11-27T20:35:44.886Z,62.82
2022-11-27T20:38:20.802Z,62.74
2022-11-27T20:40:56.607Z,62.65
2022-11-27T20:43:34.449Z,62.68
2022-11-27T20:46:09.213Z,62.93
2022-11-27T20:48:43.522Z,62.78
2022-11-27T20:51:17.120Z,63.18
2022-11-27T20:53:50.784Z,63.01
2022-11-27T20:56:47.835Z,62.95
2022-11-27T20:59:28.477Z,62.91
2022-11-27T21:04:59.486Z,63.02
2022-11-27T21:07:33.297Z,62.97
2022-11-27T21:10:38.745Z,62.94
2022-11-27T21:13:44.911Z,63.04
2022-11-27T21:16:19.972Z,62.86
2022-11-27T21:18:58.944Z,62.63
2022-11-27T21:21:28.134Z,62.76
2022-11-27T21:24:05.523Z,62.63
2022-11-27T21:26:44.163Z,62.67
2022-11-27T21:29:16.826Z,62.53
2022-11-27T21:31:50.730Z,62.67
2022-11-27T21:37:12.326Z,62.27
2022-11-27T21:39:45.569Z,62.67
2022-11-27T21:42:18.588Z,63.01
2022-11-27T21:45:00.933Z,62.67
2022-11-27T21:47:33.294Z,62.69
2022-11-27T21:50:11.863Z,62.92
2022-11-27T21:52:42.732Z,62.91
2022-11-27T21:55:15.842Z,62.89
2022-11-27T21:57:47.164Z,62.74
2022-11-27T22:00:21.497Z,63.15
2022-11-27T22:03:08.604Z,62.93
2022-11-27T22:05:40.339Z,63.07
2022-11-27T22:08:17.480Z,63.39
2022-11-27T22:10:47.422Z,63.43
2022-11-27T22:13:16.325Z,63.32
2022-11-27T22:18:53.499Z,63.27
2022-11-27T22:21:29.608Z,63.11
2022-11-27T22:26:50.447Z,63.20
2022-11-27T22:29:20.115Z,63.21
2022-11-27T22:32:01.082Z,63.42
2022-11-27T22:34:31.068Z,63.13
2022-11-27T22:37:06.026Z,63.11
2022-11-27T22:39:38.884Z,63.18
2022-11-27T22:42:11.810Z,63.30
2022-11-27T22:44:44.686Z,63.44
2022-11-27T22:47:21.461Z,63.20
2022-11-27T22:49:51.188Z,63.30
2022-11-27T22:52:23.951Z,63.21
2022-11-27T22:54:54.602Z,63.08
2022-11-27T22:57:23.941Z,63.32
2022-11-27T23:00:08.065Z,63.21
2022-11-27T23:02:44.009Z,63.31
2022-11-27T23:05:16.517Z,63.27
2022-11-27T23:07:49.260Z,63.24
2022-11-27T23:10:19.128Z,62.99
2022-11-27T23:12:53.175Z,62.80
2022-11-27T23:15:27.033Z,63.00
2022-11-27T23:17:59.000Z,62.99
2022-11-27T23:20:31.119Z,63.07
2022-11-27T23:23:04.923Z,63.02
2022-11-27T23:25:41.994Z,62.72
2022-11-27T23:28:12.442Z,62.87
2022-11-27T23:31:15.282Z,63.05
2022-11-27T23:33:51.820Z,62.68
2022-11-27T23:36:36.786Z,62.56
2022-11-27T23:39:14.800Z,63.04
2022-11-27T23:41:44.287Z,63.04
2022-11-27T23:44:19.207Z,63.29
2022-11-27T23:46:49.023Z,63.06
2022-11-27T23:49:24.259Z,63.44
2022-11-27T23:51:56.604Z,63.31
2022-11-27T23:54:29.241Z,63.36
2022-11-27T23:56:58.383Z,63.03
2022-11-27T23:59:30.291Z,62.95
